createdAt,value
2018-07-27T00:00:10.039Z,8.50
2018-07-27T00:02:39.912Z,8.27
2018-07-27T00:05:09.363Z,8.20
2018-07-27T00:07:38.847Z,8.60
2018-07-27T00:10:09.140Z,8.70
2018-07-27T00:12:38.526Z,7.60
2018-07-27T00:15:07.900Z,8.57
2018-07-27T00:17:37.269Z,9.20
2018-07-27T00:20:06.775Z,8.80
2018-07-27T00:22:36.249Z,9.13
2018-07-27T00:25:06.486Z,9.97
2018-07-27T00:27:35.889Z,9.30
2018-07-27T00:30:06.620Z,8.13
2018-07-27T00:32:36.673Z,10.80
2018-07-27T00:35:05.812Z,9.70
2018-07-27T00:37:35.189Z,9.97
2018-07-27T00:40:10.399Z,9.57
2018-07-27T00:42:39.788Z,9.93
2018-07-27T00:45:09.203Z,9.67
2018-07-27T00:47:39.014Z,8.80
2018-07-27T00:50:08.519Z,9.00
2018-07-27T00:52:37.826Z,8.93
2018-07-27T00:55:07.137Z,9.53
2018-07-27T00:57:36.470Z,11.57
2018-07-27T01:00:06.578Z,8.67
2018-07-27T01:02:35.903Z,8.90
2018-07-27T01:05:05.510Z,9.17
2018-07-27T01:07:35.137Z,8.80
2018-07-27T01:10:05.100Z,8.47
2018-07-27T01:12:34.467Z,9.37
2018-07-27T01:15:04.053Z,8.70
2018-07-27T01:17:33.747Z,8.53
2018-07-27T01:20:03.118Z,8.83
2018-07-27T01:22:32.385Z,8.20
2018-07-27T01:25:01.705Z,9.40
2018-07-27T01:27:30.959Z,9.40
2018-07-27T01:30:00.489Z,8.53
2018-07-27T01:32:30.331Z,8.53
2018-07-27T01:34:59.778Z,9.37
2018-07-27T01:37:29.183Z,9.50
2018-07-27T01:39:58.741Z,9.20
2018-07-27T01:42:28.144Z,9.57
2018-07-27T01:44:57.576Z,9.27
2018-07-27T01:47:27.019Z,9.10
2018-07-27T01:49:56.414Z,10.10
2018-07-27T01:52:25.802Z,9.73
2018-07-27T01:54:55.702Z,10.00
2018-07-27T01:57:25.053Z,9.87
2018-07-27T01:59:54.348Z,9.60
2018-07-27T02:02:23.732Z,8.73
2018-07-27T02:04:53.111Z,9.13
2018-07-27T02:07:22.447Z,9.40
2018-07-27T02:09:51.805Z,9.60
2018-07-27T02:12:21.143Z,11.00
2018-07-27T02:14:50.444Z,10.10
2018-07-27T02:17:20.528Z,10.77
2018-07-27T02:19:49.938Z,10.70
2018-07-27T02:22:19.268Z,10.50
2018-07-27T02:24:48.596Z,9.77
2018-07-27T02:27:17.954Z,10.50
2018-07-27T02:29:47.343Z,10.80
2018-07-27T02:32:16.670Z,9.50
2018-07-27T02:34:45.979Z,10.20
2018-07-27T02:37:15.436Z,10.17
2018-07-27T02:39:44.953Z,10.57
2018-07-27T02:42:14.319Z,10.37
2018-07-27T02:44:43.613Z,11.40
2018-07-27T02:47:13.055Z,10.57
2018-07-27T02:49:42.365Z,10.70
2018-07-27T02:52:11.713Z,10.73
2018-07-27T02:54:41.006Z,10.50
2018-07-27T02:57:10.400Z,11.00
2018-07-27T02:59:39.842Z,10.80
2018-07-27T03:02:09.899Z,11.67
2018-07-27T03:04:39.266Z,12.10
2018-07-27T03:07:08.909Z,11.53
2018-07-27T03:09:38.323Z,11.43
2018-07-27T03:12:07.718Z,12.20
2018-07-27T03:14:36.999Z,11.03
2018-07-27T03:17:06.815Z,11.53
2018-07-27T03:19:36.170Z,12.07
2018-07-27T03:22:05.464Z,11.80
2018-07-27T03:24:35.170Z,11.83
2018-07-27T03:27:04.608Z,11.63
2018-07-27T03:29:34.037Z,12.70
2018-07-27T03:32:03.166Z,12.07
2018-07-27T03:34:32.539Z,12.17
2018-07-27T03:37:01.920Z,11.90
2018-07-27T03:39:31.342Z,12.87
2018-07-27T03:42:00.716Z,12.03
2018-07-27T03:44:30.106Z,12.60
2018-07-27T03:46:59.979Z,12.93
2018-07-27T03:49:29.400Z,11.90
2018-07-27T03:51:58.746Z,12.97
2018-07-27T03:54:28.094Z,13.60
2018-07-27T03:56:57.369Z,12.90
2018-07-27T03:59:26.700Z,12.10
2018-07-27T04:01:56.049Z,12.40
2018-07-27T04:04:25.375Z,12.23
2018-07-27T04:06:54.674Z,11.30
2018-07-27T04:09:24.572Z,11.63
2018-07-27T04:11:53.860Z,11.63
2018-07-27T04:14:23.163Z,12.67
2018-07-27T04:16:52.517Z,11.53
2018-07-27T04:19:21.814Z,12.37
2018-07-27T04:21:51.287Z,11.80
2018-07-27T04:24:20.712Z,12.57
2018-07-27T04:26:50.295Z,10.40
2018-07-27T04:29:19.674Z,10.57
2018-07-27T04:31:49.160Z,10.90
2018-07-27T04:34:19.014Z,10.47
2018-07-27T04:36:48.496Z,11.10
2018-07-27T04:39:17.870Z,10.50
2018-07-27T04:41:47.198Z,11.10
2018-07-27T04:44:16.554Z,10.47
2018-07-27T04:46:45.863Z,10.17
2018-07-27T04:49:15.238Z,10.17
2018-07-27T04:51:44.620Z,9.57
2018-07-27T04:54:14.318Z,10.50
2018-07-27T04:56:43.716Z,10.40
2018-07-27T04:59:13.080Z,9.57
2018-07-27T05:01:42.481Z,10.50
2018-07-27T05:04:12.082Z,9.90
2018-07-27T05:06:41.460Z,9.57
2018-07-27T05:09:16.721Z,10.13
2018-07-27T05:11:46.279Z,9.20
2018-07-27T05:14:15.677Z,8.67
2018-07-27T05:16:45.146Z,9.30
2018-07-27T05:19:14.486Z,9.77
2018-07-27T05:21:43.804Z,9.03
2018-07-27T05:24:13.100Z,8.77
2018-07-27T05:26:42.415Z,8.07
2018-07-27T05:29:11.733Z,9.00
2018-07-27T05:31:41.223Z,9.40
2018-07-27T05:34:10.535Z,8.80
2018-07-27T05:36:39.989Z,8.40
2018-07-27T05:39:11.694Z,8.90
2018-07-27T05:41:41.173Z,8.77
2018-07-27T05:44:10.660Z,8.40
2018-07-27T05:46:40.001Z,9.23
2018-07-27T05:49:09.309Z,9.23
2018-07-27T05:51:38.705Z,8.70
2018-07-27T05:54:08.347Z,8.40
2018-07-27T05:56:37.691Z,8.47
2018-07-27T05:59:07.150Z,8.40
2018-07-27T06:01:36.478Z,8.80
2018-07-27T06:04:06.025Z,7.73
2018-07-27T06:06:35.378Z,8.90
2018-07-27T06:09:07.394Z,8.60
2018-07-27T06:11:36.790Z,8.30
2018-07-27T06:14:06.151Z,8.50
2018-07-27T06:16:36.107Z,8.27
2018-07-27T06:19:05.510Z,8.60
2018-07-27T06:21:34.884Z,9.53
2018-07-27T06:24:04.294Z,9.30
2018-07-27T06:26:33.630Z,8.93
2018-07-27T06:29:02.980Z,9.23
2018-07-27T06:31:32.321Z,8.50
2018-07-27T06:34:01.614Z,10.03
2018-07-27T06:36:31.092Z,9.40
2018-07-27T06:39:00.490Z,8.70
2018-07-27T06:41:29.833Z,8.53
2018-07-27T06:43:59.156Z,8.00
2018-07-27T06:46:28.763Z,8.43
2018-07-27T06:48:58.047Z,8.80
2018-07-27T06:51:27.411Z,9.90
2018-07-27T06:53:56.732Z,8.53
2018-07-27T06:56:26.071Z,8.47
2018-07-27T06:58:55.419Z,8.73
2018-07-27T07:01:24.851Z,8.50
2018-07-27T07:03:54.255Z,7.60
2018-07-27T07:06:23.608Z,7.67
2018-07-27T07:08:52.953Z,8.40
2018-07-27T07:11:22.276Z,8.87
2018-07-27T07:13:51.586Z,7.93
2018-07-27T07:16:20.972Z,7.67
2018-07-27T07:18:50.322Z,10.20
2018-07-27T07:21:19.502Z,8.10
2018-07-27T07:23:49.299Z,7.80
2018-07-27T07:26:18.625Z,7.73
2018-07-27T07:28:47.986Z,7.93
2018-07-27T07:31:17.324Z,7.60
2018-07-27T07:36:13.482Z,7.90
2018-07-27T07:38:43.076Z,7.40
2018-07-27T07:41:12.488Z,8.57
2018-07-27T07:43:42.017Z,7.90
2018-07-27T07:46:11.933Z,8.03
2018-07-27T07:48:41.291Z,7.27
2018-07-27T07:51:10.630Z,7.67
2018-07-27T07:53:39.999Z,7.50
2018-07-27T07:56:09.402Z,7.57
2018-07-27T07:58:38.746Z,7.20
2018-07-27T08:01:08.171Z,8.03
2018-07-27T08:03:37.511Z,6.70
2018-07-27T08:06:07.597Z,8.10
2018-07-27T08:08:37.032Z,8.20
2018-07-27T08:11:06.489Z,6.90
2018-07-27T08:13:35.804Z,7.60
2018-07-27T08:16:05.136Z,7.40
2018-07-27T08:18:34.509Z,7.80
2018-07-27T08:21:03.993Z,6.73
2018-07-27T08:23:33.382Z,7.87
2018-07-27T08:27:07.187Z,6.83
2018-07-27T08:29:51.565Z,7.37
2018-07-27T08:32:20.971Z,6.37
2018-07-27T08:34:50.479Z,6.57
2018-07-27T08:37:19.840Z,6.10
2018-07-27T08:39:49.327Z,6.40
2018-07-27T08:42:18.575Z,6.07
2018-07-27T08:44:47.926Z,6.10
2018-07-27T08:47:17.284Z,5.70
2018-07-27T08:49:46.555Z,5.53
2018-07-27T08:52:16.133Z,5.90
2018-07-27T08:54:45.483Z,5.60
2018-07-27T08:57:14.606Z,6.07
2018-07-27T08:59:44.005Z,5.47
2018-07-27T09:02:13.442Z,5.30
2018-07-27T09:04:42.953Z,5.20
2018-07-27T09:07:12.333Z,5.43
2018-07-27T09:09:41.870Z,4.83
2018-07-27T09:12:11.269Z,5.03
2018-07-27T09:14:41.216Z,4.83
2018-07-27T09:17:10.545Z,4.67
2018-07-27T09:19:39.970Z,4.40
2018-07-27T09:22:09.372Z,4.10
2018-07-27T09:24:38.904Z,4.30
2018-07-27T09:27:08.143Z,4.17
2018-07-27T09:29:37.499Z,4.50
2018-07-27T09:32:06.854Z,4.60
2018-07-27T09:34:36.469Z,4.40
2018-07-27T09:37:06.373Z,4.60
2018-07-27T09:39:35.750Z,4.83
2018-07-27T09:42:05.482Z,5.13
2018-07-27T09:44:34.858Z,4.57
2018-07-27T09:47:04.747Z,4.50
2018-07-27T09:49:34.097Z,4.57
2018-07-27T09:52:03.551Z,4.83
2018-07-27T09:54:32.958Z,4.63
2018-07-27T09:57:02.241Z,5.57
2018-07-27T09:59:31.910Z,5.50
2018-07-27T10:02:01.259Z,4.73
2018-07-27T10:04:30.589Z,6.10
2018-07-27T10:06:59.979Z,5.80
2018-07-27T10:09:29.353Z,5.63
2018-07-27T10:11:58.729Z,6.13
2018-07-27T10:14:28.108Z,6.10
2018-07-27T10:16:57.399Z,6.10
2018-07-27T10:19:26.736Z,5.80
2018-07-27T10:21:56.669Z,4.90
2018-07-27T10:24:26.065Z,5.27
2018-07-27T10:26:55.204Z,5.07
2018-07-27T10:29:24.714Z,5.43
2018-07-27T10:31:54.065Z,6.60
2018-07-27T10:34:23.439Z,5.33
2018-07-27T10:36:52.794Z,6.03
2018-07-27T10:39:22.246Z,5.97
2018-07-27T10:41:51.645Z,5.30
2018-07-27T10:44:21.238Z,5.00
2018-07-27T10:46:50.595Z,5.67
2018-07-27T10:49:19.666Z,5.53
2018-07-27T10:51:49.063Z,5.00
2018-07-27T10:54:18.489Z,5.00
2018-07-27T10:56:48.010Z,5.97
2018-07-27T10:59:17.317Z,4.83
2018-07-27T11:01:46.821Z,5.60
2018-07-27T11:04:16.322Z,5.83
2018-07-27T11:06:45.941Z,5.20
2018-07-27T11:09:15.293Z,5.10
2018-07-27T11:11:44.976Z,4.97
2018-07-27T11:14:14.680Z,5.03
2018-07-27T11:16:44.223Z,5.20
2018-07-27T11:19:13.479Z,4.70
2018-07-27T11:21:42.836Z,5.23
2018-07-27T11:24:12.187Z,5.30
2018-07-27T11:26:41.667Z,6.10
2018-07-27T11:29:11.663Z,5.70
2018-07-27T11:31:40.968Z,4.87
2018-07-27T11:34:10.333Z,5.10
2018-07-27T11:36:39.903Z,5.30
2018-07-27T11:39:10.905Z,4.97
2018-07-27T11:41:40.344Z,4.57
2018-07-27T11:44:09.465Z,3.93
2018-07-27T11:46:38.976Z,4.00
2018-07-27T11:49:08.450Z,4.60
2018-07-27T11:51:38.484Z,4.37
2018-07-27T11:54:07.818Z,4.60
2018-07-27T11:56:37.204Z,4.73
2018-07-27T11:59:06.568Z,4.13
2018-07-27T12:01:35.712Z,5.50
2018-07-27T12:04:05.246Z,5.40
2018-07-27T12:06:34.667Z,4.90
2018-07-27T12:09:04.935Z,4.43
2018-07-27T12:11:34.298Z,4.53
2018-07-27T12:14:04.062Z,4.70
2018-07-27T12:16:33.342Z,5.03
2018-07-27T12:19:02.783Z,5.27
2018-07-27T12:21:32.347Z,5.13
2018-07-27T12:24:01.925Z,4.97
2018-07-27T12:26:31.259Z,4.80
2018-07-27T12:29:00.783Z,4.33
2018-07-27T12:31:30.166Z,4.40
2018-07-27T12:33:59.761Z,4.40
2018-07-27T12:36:29.442Z,3.90
2018-07-27T12:38:58.823Z,4.10
2018-07-27T12:41:28.087Z,4.30
2018-07-27T12:43:57.528Z,4.80
2018-07-27T12:46:26.854Z,4.90
2018-07-27T12:48:56.183Z,4.43
2018-07-27T12:51:25.571Z,4.80
2018-07-27T12:53:55.019Z,5.10
2018-07-27T12:56:24.468Z,4.30
2018-07-27T12:58:54.367Z,4.57
2018-07-27T13:01:23.719Z,4.57
2018-07-27T13:03:53.111Z,4.90
2018-07-27T13:06:22.573Z,4.60
2018-07-27T13:08:52.051Z,4.20
2018-07-27T13:11:21.405Z,4.77
2018-07-27T13:13:50.831Z,4.47
2018-07-27T13:16:20.267Z,4.70
2018-07-27T13:18:49.586Z,5.13
2018-07-27T13:21:19.672Z,4.80
2018-07-27T13:23:58.151Z,4.60
2018-07-27T13:26:27.538Z,4.87
2018-07-27T13:28:57.042Z,4.73
2018-07-27T13:34:50.549Z,5.00
2018-07-27T13:37:21.390Z,6.10
2018-07-27T13:39:52.083Z,4.93
2018-07-27T13:42:28.994Z,4.80
2018-07-27T13:44:58.669Z,5.53
2018-07-27T13:47:28.376Z,5.10
2018-07-27T13:49:57.722Z,5.33
2018-07-27T13:52:27.103Z,5.37
2018-07-27T13:54:56.669Z,5.20
2018-07-27T13:57:26.305Z,5.00
2018-07-27T13:59:55.800Z,4.93
2018-07-27T14:02:25.123Z,4.90
2018-07-27T14:04:54.477Z,5.23
2018-07-27T14:07:23.828Z,4.60
2018-07-27T14:09:53.171Z,4.57
2018-07-27T14:12:22.708Z,5.70
2018-07-27T14:14:52.017Z,5.73
2018-07-27T14:17:21.341Z,5.67
2018-07-27T14:19:50.982Z,5.57
2018-07-27T14:22:20.339Z,5.40
2018-07-27T14:24:49.729Z,5.23
2018-07-27T14:27:19.080Z,5.53
2018-07-27T14:29:48.415Z,4.97
2018-07-27T14:32:17.926Z,5.10
2018-07-27T14:34:47.418Z,5.60
2018-07-27T14:37:16.826Z,5.23
2018-07-27T14:39:46.158Z,6.00
2018-07-27T14:42:15.578Z,5.17
2018-07-27T14:44:45.034Z,5.40
2018-07-27T14:47:14.356Z,5.27
2018-07-27T14:49:43.806Z,5.67
2018-07-27T14:52:13.109Z,5.50
2018-07-27T14:54:42.410Z,5.10
2018-07-27T14:57:12.015Z,5.87
2018-07-27T14:59:41.378Z,5.40
2018-07-27T15:02:10.665Z,5.47
2018-07-27T15:04:40.362Z,5.53
2018-07-27T15:07:09.690Z,5.57
2018-07-27T15:09:39.101Z,6.27
2018-07-27T15:12:08.607Z,5.77
2018-07-27T15:14:37.922Z,5.80
2018-07-27T15:17:07.296Z,5.30
2018-07-27T15:19:36.604Z,6.50
2018-07-27T15:22:05.970Z,5.43
2018-07-27T15:24:35.138Z,6.00
2018-07-27T15:27:04.770Z,5.90
2018-07-27T15:29:34.111Z,5.50
2018-07-27T15:32:03.391Z,6.30
2018-07-27T15:34:32.542Z,6.30
2018-07-27T15:37:02.119Z,6.47
2018-07-27T15:39:31.442Z,5.60
2018-07-27T15:42:00.815Z,5.87
2018-07-27T15:44:30.175Z,6.10
2018-07-27T15:46:59.495Z,6.10
2018-07-27T15:49:28.994Z,5.73
2018-07-27T15:51:58.289Z,5.60
2018-07-27T15:54:27.632Z,6.07
2018-07-27T15:56:56.940Z,5.90
2018-07-27T15:59:26.292Z,6.10
2018-07-27T16:01:55.615Z,5.70
2018-07-27T16:04:24.701Z,5.43
2018-07-27T16:06:53.993Z,5.60
2018-07-27T16:09:23.381Z,5.60
2018-07-27T16:11:52.903Z,5.13
2018-07-27T16:14:22.241Z,5.77
2018-07-27T16:16:51.623Z,5.00
2018-07-27T16:19:20.781Z,6.20
2018-07-27T16:21:50.157Z,5.30
2018-07-27T16:24:19.708Z,5.13
2018-07-27T16:26:49.275Z,5.63
2018-07-27T16:29:18.612Z,5.10
2018-07-27T16:31:47.955Z,5.37
2018-07-27T16:34:17.679Z,5.20
2018-07-27T16:36:47.225Z,5.40
2018-07-27T16:39:17.728Z,4.80
2018-07-27T16:41:48.460Z,5.47
2018-07-27T16:44:19.735Z,4.73
2018-07-27T16:46:49.236Z,4.90
2018-07-27T16:49:19.122Z,4.97
2018-07-27T16:51:48.562Z,5.13
2018-07-27T16:54:18.167Z,4.07
2018-07-27T16:56:47.498Z,4.57
2018-07-27T16:59:16.866Z,3.87
2018-07-27T17:01:46.192Z,4.27
2018-07-27T17:04:15.594Z,4.27
2018-07-27T17:06:44.983Z,4.50
2018-07-27T17:09:14.299Z,4.03
2018-07-27T17:11:43.708Z,4.40
2018-07-27T17:14:12.753Z,4.50
2018-07-27T17:16:42.610Z,4.00
2018-07-27T17:19:12.027Z,3.73
2018-07-27T17:21:41.474Z,3.60
2018-07-27T17:24:10.921Z,3.80
2018-07-27T17:26:40.265Z,3.67
2018-07-27T17:29:09.597Z,3.60
2018-07-27T17:31:39.036Z,4.57
2018-07-27T17:34:08.418Z,4.23
2018-07-27T17:36:37.828Z,3.93
2018-07-27T17:39:11.712Z,4.10
2018-07-27T17:41:41.458Z,4.10
2018-07-27T17:44:11.112Z,4.27
2018-07-27T17:46:40.585Z,4.83
2018-07-27T17:49:10.362Z,4.37
2018-07-27T17:51:39.678Z,4.27
2018-07-27T17:54:09.995Z,4.70
2018-07-27T17:56:39.569Z,4.20
2018-07-27T17:59:09.177Z,5.00
2018-07-27T18:01:39.153Z,4.17
2018-07-27T18:04:08.536Z,4.00
2018-07-27T18:06:38.002Z,4.63
2018-07-27T18:09:11.543Z,5.00
2018-07-27T18:11:41.142Z,4.70
2018-07-27T18:14:10.733Z,3.77
2018-07-27T18:16:40.322Z,4.63
2018-07-27T18:19:09.997Z,4.07
2018-07-27T18:21:39.810Z,4.73
2018-07-27T18:24:09.546Z,4.53
2018-07-27T18:26:39.137Z,4.67
2018-07-27T18:29:08.555Z,5.37
2018-07-27T18:31:38.415Z,6.03
2018-07-27T18:34:07.990Z,5.30
2018-07-27T18:36:38.064Z,6.60
2018-07-27T18:39:10.332Z,5.77
2018-07-27T18:41:39.847Z,5.77
2018-07-27T18:44:09.496Z,6.00
2018-07-27T18:46:40.317Z,6.40
2018-07-27T18:49:10.457Z,6.50
2018-07-27T18:51:39.905Z,6.20
2018-07-27T18:54:09.387Z,6.60
2018-07-27T18:56:39.208Z,6.93
2018-07-27T18:59:08.665Z,6.80
2018-07-27T19:01:38.209Z,7.20
2018-07-27T19:04:08.019Z,7.57
2018-07-27T19:06:37.965Z,6.23
2018-07-27T19:09:11.160Z,6.83
2018-07-27T19:11:40.511Z,6.47
2018-07-27T19:14:10.151Z,7.70
2018-07-27T19:16:39.857Z,6.57
2018-07-27T19:19:09.501Z,5.90
2018-07-27T19:21:38.817Z,7.10
2018-07-27T19:24:08.245Z,6.03
2018-07-27T19:26:37.620Z,6.33
2018-07-27T19:29:06.933Z,6.47
2018-07-27T19:31:36.312Z,6.97
2018-07-27T19:34:05.928Z,6.33
2018-07-27T19:36:35.292Z,7.43
2018-07-27T19:39:06.734Z,6.60
2018-07-27T19:41:36.104Z,5.90
2018-07-27T19:44:05.528Z,6.33
2018-07-27T19:46:34.924Z,6.93
2018-07-27T19:49:04.534Z,6.57
2018-07-27T19:51:33.601Z,6.33
2018-07-27T19:54:02.984Z,6.90
2018-07-27T19:56:32.514Z,7.33
2018-07-27T19:59:01.936Z,6.97
2018-07-27T20:01:31.522Z,6.50
2018-07-27T20:04:01.070Z,6.33
2018-07-27T20:06:30.499Z,6.70
2018-07-27T20:08:59.951Z,6.60
2018-07-27T20:11:29.661Z,6.23
2018-07-27T20:13:59.131Z,7.57
2018-07-27T20:16:28.547Z,6.57
2018-07-27T20:18:57.898Z,6.70
2018-07-27T20:21:27.411Z,6.30
2018-07-27T20:23:57.399Z,7.07
2018-07-27T20:26:26.723Z,6.40
2018-07-27T20:28:56.056Z,7.00
2018-07-27T20:31:25.454Z,6.97
2018-07-27T20:33:54.823Z,7.00
2018-07-27T20:36:24.687Z,6.47
2018-07-27T20:38:54.128Z,6.20
2018-07-27T20:41:23.495Z,7.00
2018-07-27T20:43:53.487Z,7.07
2018-07-27T20:46:23.374Z,7.73
2018-07-27T20:48:52.787Z,6.40
2018-07-27T20:51:22.318Z,6.87
2018-07-27T20:53:51.802Z,7.10
2018-07-27T20:56:21.306Z,7.10
2018-07-27T20:58:50.659Z,7.43
2018-07-27T21:01:20.045Z,6.63
2018-07-27T21:03:49.474Z,7.03
2018-07-27T21:06:18.812Z,6.20
2018-07-27T21:08:48.779Z,6.57
2018-07-27T21:11:18.317Z,7.30
2018-07-27T21:13:47.687Z,7.10
2018-07-27T21:16:17.111Z,7.70
2018-07-27T21:18:46.741Z,7.00
2018-07-27T21:21:16.120Z,7.80
2018-07-27T21:23:45.641Z,7.20
2018-07-27T21:26:14.978Z,8.77
2018-07-27T21:28:44.521Z,6.60
2018-07-27T21:31:14.356Z,8.03
2018-07-27T21:33:43.785Z,6.93
2018-07-27T21:36:13.113Z,6.87
2018-07-27T21:38:42.539Z,8.10
2018-07-27T21:41:11.684Z,7.60
2018-07-27T21:43:41.192Z,7.27
2018-07-27T21:46:10.595Z,7.17
2018-07-27T21:48:39.967Z,6.70
2018-07-27T21:51:09.363Z,7.37
2018-07-27T21:53:39.262Z,6.77
2018-07-27T21:56:08.955Z,7.00
2018-07-27T21:58:38.338Z,6.90
2018-07-27T22:01:07.808Z,7.90
2018-07-27T22:03:37.258Z,7.87
2018-07-27T22:06:06.780Z,8.27
2018-07-27T22:08:37.389Z,7.73
2018-07-27T22:11:06.884Z,7.60
2018-07-27T22:13:36.321Z,7.77
2018-07-27T22:16:06.413Z,7.20
2018-07-27T22:18:35.887Z,8.27
2018-07-27T22:21:05.370Z,6.90
2018-07-27T22:23:34.846Z,8.03
2018-07-27T22:26:04.401Z,6.93
2018-07-27T22:28:33.883Z,7.57
2018-07-27T22:31:03.232Z,7.90
2018-07-27T22:33:32.566Z,7.27
2018-07-27T22:36:01.933Z,7.20
2018-07-27T22:38:31.802Z,7.40
2018-07-27T22:41:01.219Z,7.60
2018-07-27T22:43:31.571Z,8.10
2018-07-27T22:46:01.189Z,8.40
2018-07-27T22:48:30.583Z,6.30
2018-07-27T22:50:59.982Z,7.67
2018-07-27T22:53:29.380Z,8.93
2018-07-27T22:55:58.862Z,7.97
2018-07-27T22:58:28.267Z,7.67
2018-07-27T23:00:57.951Z,7.30
2018-07-27T23:03:27.274Z,7.70
2018-07-27T23:05:56.627Z,7.47
2018-07-27T23:08:25.980Z,8.20
2018-07-27T23:10:55.305Z,7.53
2018-07-27T23:13:24.443Z,7.60
2018-07-27T23:15:53.800Z,8.80
2018-07-27T23:18:23.211Z,7.23
2018-07-27T23:20:52.665Z,7.27
2018-07-27T23:23:22.511Z,8.17
2018-07-27T23:25:51.917Z,7.00
2018-07-27T23:28:21.324Z,7.10
2018-07-27T23:30:50.922Z,7.47
2018-07-27T23:33:20.023Z,7.43
2018-07-27T23:35:49.428Z,7.60
2018-07-27T23:38:19.090Z,7.70
2018-07-27T23:40:48.481Z,7.90
2018-07-27T23:43:18.521Z,8.13
2018-07-27T23:45:49.110Z,8.30
2018-07-27T23:48:18.419Z,7.73
2018-07-27T23:50:47.730Z,9.27
2018-07-27T23:53:17.188Z,9.20
2018-07-27T23:55:46.827Z,8.13
2018-07-27T23:58:16.198Z,7.00
